createdAt,value
2018-12-12T00:00:26.352Z,2.70
2018-12-12T00:02:54.789Z,2.70
2018-12-12T00:05:38.627Z,2.70
2018-12-12T00:08:06.973Z,2.92
2018-12-12T00:10:35.475Z,2.98
2018-12-12T00:13:03.847Z,3.17
2018-12-12T00:15:32.502Z,3.00
2018-12-12T00:18:01.222Z,3.15
2018-12-12T00:20:29.518Z,2.92
2018-12-12T00:22:57.908Z,2.57
2018-12-12T00:25:26.425Z,2.98
2018-12-12T00:27:54.730Z,2.95
2018-12-12T00:30:23.348Z,2.62
2018-12-12T00:32:51.692Z,3.27
2018-12-12T00:35:20.061Z,3.00
2018-12-12T00:37:48.490Z,2.80
2018-12-12T00:40:16.819Z,2.80
2018-12-12T00:42:45.190Z,2.52
2018-12-12T00:45:13.622Z,2.60
2018-12-12T00:47:41.978Z,2.70
2018-12-12T00:50:10.301Z,2.85
2018-12-12T00:52:38.661Z,3.20
2018-12-12T00:55:07.077Z,2.37
2018-12-12T00:57:35.823Z,2.93
2018-12-12T01:00:05.830Z,2.77
2018-12-12T01:02:34.182Z,2.70
2018-12-12T01:05:02.502Z,2.50
2018-12-12T01:07:30.902Z,2.40
2018-12-12T01:09:59.246Z,2.85
2018-12-12T01:12:27.557Z,3.03
2018-12-12T01:14:55.870Z,3.03
2018-12-12T01:17:24.235Z,3.25
2018-12-12T01:19:52.562Z,3.00
2018-12-12T01:22:20.971Z,2.47
2018-12-12T01:24:49.311Z,2.58
2018-12-12T01:27:17.690Z,2.80
2018-12-12T01:29:46.011Z,2.60
2018-12-12T01:32:14.345Z,2.65
2018-12-12T01:34:42.711Z,3.05
2018-12-12T01:37:11.191Z,2.40
2018-12-12T01:39:39.538Z,2.63
2018-12-12T01:42:07.856Z,2.72
2018-12-12T01:44:36.356Z,2.60
2018-12-12T01:47:04.698Z,2.93
2018-12-12T01:49:33.050Z,3.00
2018-12-12T01:52:01.407Z,2.83
2018-12-12T01:54:29.718Z,3.13
2018-12-12T01:56:58.040Z,2.98
2018-12-12T01:59:26.551Z,3.20
2018-12-12T02:01:54.924Z,3.12
2018-12-12T02:04:23.266Z,3.30
2018-12-12T02:06:51.728Z,3.98
2018-12-12T02:09:20.084Z,3.12
2018-12-12T02:11:48.402Z,3.37
2018-12-12T02:14:16.725Z,3.10
2018-12-12T02:16:45.091Z,4.10
2018-12-12T02:19:13.518Z,3.40
2018-12-12T02:21:41.969Z,3.62
2018-12-12T02:24:10.408Z,3.20
2018-12-12T02:26:38.730Z,3.92
2018-12-12T02:29:07.287Z,3.05
2018-12-12T02:31:35.675Z,3.58
2018-12-12T02:34:04.100Z,3.52
2018-12-12T02:36:32.501Z,3.30
2018-12-12T02:39:00.952Z,3.00
2018-12-12T02:41:29.438Z,3.35
2018-12-12T02:43:57.823Z,3.33
2018-12-12T02:46:26.425Z,3.20
2018-12-12T02:48:54.833Z,3.95
2018-12-12T02:51:23.645Z,3.83
2018-12-12T02:53:51.980Z,3.90
2018-12-12T02:56:20.286Z,3.40
2018-12-12T02:58:48.617Z,3.20
2018-12-12T03:01:17.008Z,3.45
2018-12-12T03:03:45.426Z,3.27
2018-12-12T03:06:13.756Z,3.58
2018-12-12T03:08:42.059Z,3.45
2018-12-12T03:11:10.349Z,4.17
2018-12-12T03:13:38.900Z,3.60
2018-12-12T03:16:07.273Z,3.95
2018-12-12T03:18:35.594Z,3.77
2018-12-12T03:21:03.929Z,3.20
2018-12-12T03:23:32.386Z,3.87
2018-12-12T03:26:00.686Z,3.67
2018-12-12T03:28:29.012Z,3.22
2018-12-12T03:30:57.322Z,3.67
2018-12-12T03:33:25.667Z,3.20
2018-12-12T03:35:54.268Z,3.85
2018-12-12T03:38:22.607Z,3.70
2018-12-12T03:40:51.021Z,3.20
2018-12-12T03:43:19.347Z,3.15
2018-12-12T03:45:47.725Z,3.60
2018-12-12T03:48:16.108Z,4.37
2018-12-12T03:50:44.546Z,3.67
2018-12-12T03:53:12.983Z,3.77
2018-12-12T03:55:41.380Z,3.50
2018-12-12T03:58:09.993Z,3.90
2018-12-12T04:00:38.470Z,3.95
2018-12-12T04:03:06.811Z,4.00
2018-12-12T04:05:35.239Z,3.58
2018-12-12T04:08:03.519Z,3.95
2018-12-12T04:10:31.970Z,3.45
2018-12-12T04:13:00.330Z,3.72
2018-12-12T04:15:28.677Z,3.80
2018-12-12T04:17:57.105Z,3.87
2018-12-12T04:20:25.514Z,3.87
2018-12-12T04:22:53.841Z,4.17
2018-12-12T04:25:22.148Z,4.12
2018-12-12T04:27:50.519Z,4.70
2018-12-12T04:30:18.809Z,4.35
2018-12-12T04:32:47.122Z,5.00
2018-12-12T04:35:15.467Z,3.95
2018-12-12T04:37:43.906Z,4.00
2018-12-12T04:40:12.225Z,4.05
2018-12-12T04:42:40.778Z,3.90
2018-12-12T04:45:09.174Z,3.67
2018-12-12T04:47:37.456Z,4.80
2018-12-12T04:50:05.880Z,4.50
2018-12-12T04:52:34.183Z,3.83
2018-12-12T04:55:04.504Z,3.90
2018-12-12T04:57:32.941Z,4.80
2018-12-12T05:00:01.261Z,4.45
2018-12-12T05:02:29.559Z,4.12
2018-12-12T05:04:57.962Z,4.17
2018-12-12T05:07:26.329Z,4.30
2018-12-12T05:09:54.674Z,4.00
2018-12-12T05:12:22.995Z,4.30
2018-12-12T05:14:51.329Z,4.40
2018-12-12T05:17:19.733Z,4.05
2018-12-12T05:19:48.062Z,4.50
2018-12-12T05:22:16.377Z,4.95
2018-12-12T05:24:44.663Z,4.35
2018-12-12T05:27:13.455Z,4.25
2018-12-12T05:29:41.774Z,4.37
2018-12-12T05:32:10.098Z,4.10
2018-12-12T05:34:38.425Z,4.85
2018-12-12T05:37:06.790Z,5.08
2018-12-12T05:39:35.136Z,5.00
2018-12-12T05:42:03.438Z,6.00
2018-12-12T05:44:31.730Z,4.90
2018-12-12T05:47:00.044Z,5.15
2018-12-12T05:49:28.569Z,4.40
2018-12-12T05:51:56.932Z,4.70
2018-12-12T05:54:25.280Z,4.65
2018-12-12T05:56:53.585Z,4.75
2018-12-12T05:59:22.180Z,4.90
2018-12-12T06:01:50.530Z,5.47
2018-12-12T06:04:18.865Z,5.20
2018-12-12T06:06:47.162Z,4.55
2018-12-12T06:09:15.461Z,5.17
2018-12-12T06:11:43.955Z,4.75
2018-12-12T06:14:12.248Z,5.30
2018-12-12T06:16:40.564Z,5.20
2018-12-12T06:19:09.003Z,3.92
2018-12-12T06:21:37.370Z,4.30
2018-12-12T06:24:05.702Z,3.98
2018-12-12T06:26:37.286Z,5.55
2018-12-12T06:29:04.461Z,5.22
2018-12-12T06:31:32.821Z,4.50
2018-12-12T06:34:01.243Z,5.30
2018-12-12T06:36:29.581Z,4.05
2018-12-12T06:38:58.777Z,5.00
2018-12-12T06:41:27.078Z,5.22
2018-12-12T06:43:55.397Z,4.83
2018-12-12T06:46:23.734Z,5.42
2018-12-12T06:48:52.081Z,4.83
2018-12-12T06:51:20.371Z,4.97
2018-12-12T06:53:48.700Z,4.65
2018-12-12T06:56:17.337Z,4.45
2018-12-12T06:58:45.670Z,4.10
2018-12-12T07:01:13.950Z,4.50
2018-12-12T07:03:42.293Z,4.58
2018-12-12T07:06:10.579Z,5.00
2018-12-12T07:08:38.905Z,4.87
2018-12-12T07:11:07.265Z,4.10
2018-12-12T07:13:35.908Z,6.30
2018-12-12T07:16:04.698Z,4.40
2018-12-12T07:18:33.167Z,4.65
2018-12-12T07:21:01.512Z,4.20
2018-12-12T07:23:29.818Z,3.90
2018-12-12T07:25:58.169Z,3.95
2018-12-12T07:28:26.472Z,4.55
2018-12-12T07:30:54.834Z,3.47
2018-12-12T07:33:23.204Z,3.70
2018-12-12T07:35:51.521Z,4.33
2018-12-12T07:38:19.863Z,4.30
2018-12-12T07:40:48.281Z,4.12
2018-12-12T07:43:16.585Z,4.10
2018-12-12T07:45:44.929Z,5.25
2018-12-12T07:48:13.282Z,4.00
2018-12-12T07:50:41.717Z,3.77
2018-12-12T07:53:10.023Z,4.42
2018-12-12T07:55:38.341Z,8.53
2018-12-12T07:58:06.711Z,4.83
2018-12-12T08:00:35.068Z,4.28
2018-12-12T08:03:06.339Z,3.65
2018-12-12T08:05:33.910Z,4.42
2018-12-12T08:08:02.242Z,4.12
2018-12-12T08:10:30.640Z,4.00
2018-12-12T08:12:58.944Z,4.20
2018-12-12T08:15:27.296Z,4.03
2018-12-12T08:17:55.629Z,3.77
2018-12-12T08:20:24.385Z,4.35
2018-12-12T08:22:53.554Z,4.22
2018-12-12T08:25:22.497Z,3.87
2018-12-12T08:27:50.835Z,3.80
2018-12-12T08:30:19.192Z,4.15
2018-12-12T08:32:47.546Z,4.37
2018-12-12T08:35:15.919Z,4.25
2018-12-12T08:37:44.227Z,3.95
2018-12-12T08:40:12.606Z,4.90
2018-12-12T08:42:40.997Z,3.90
2018-12-12T08:45:09.361Z,6.15
2018-12-12T08:47:37.741Z,5.15
2018-12-12T08:50:07.966Z,4.65
2018-12-12T08:52:36.315Z,5.40
2018-12-12T08:55:05.250Z,4.83
2018-12-12T08:57:33.540Z,5.03
2018-12-12T09:00:01.851Z,4.33
2018-12-12T09:02:30.160Z,4.87
2018-12-12T09:04:58.471Z,4.60
2018-12-12T09:07:26.796Z,5.78
2018-12-12T09:09:55.244Z,4.70
2018-12-12T09:12:23.554Z,4.47
2018-12-12T09:14:51.862Z,5.67
2018-12-12T09:17:20.201Z,5.70
2018-12-12T09:19:48.485Z,8.90
2018-12-12T09:22:16.790Z,9.67
2018-12-12T09:24:45.131Z,9.80
2018-12-12T09:27:13.443Z,11.07
2018-12-12T09:29:41.709Z,12.03
2018-12-12T09:32:10.400Z,12.40
2018-12-12T09:34:38.674Z,13.07
2018-12-12T09:37:07.033Z,12.27
2018-12-12T09:39:35.335Z,13.90
2018-12-12T09:42:03.760Z,9.80
2018-12-12T09:44:32.236Z,10.33
2018-12-12T09:47:00.582Z,8.13
2018-12-12T09:49:28.902Z,7.00
2018-12-12T09:51:57.228Z,6.73
2018-12-12T09:54:26.064Z,6.40
2018-12-12T09:56:54.376Z,6.07
2018-12-12T09:59:22.678Z,6.50
2018-12-12T10:01:51.023Z,6.03
2018-12-12T10:04:19.337Z,6.80
2018-12-12T10:06:47.705Z,7.10
2018-12-12T10:09:16.055Z,7.17
2018-12-12T10:11:44.347Z,7.17
2018-12-12T10:14:12.635Z,6.30
2018-12-12T10:16:41.112Z,6.30
2018-12-12T10:19:09.389Z,7.00
2018-12-12T10:21:37.683Z,6.53
2018-12-12T10:24:06.041Z,6.30
2018-12-12T10:26:34.355Z,6.47
2018-12-12T10:29:02.780Z,5.30
2018-12-12T10:31:31.178Z,6.87
2018-12-12T10:33:59.455Z,7.03
2018-12-12T10:36:27.727Z,6.47
2018-12-12T10:38:56.126Z,6.40
2018-12-12T10:41:24.466Z,6.27
2018-12-12T10:43:52.770Z,5.80
2018-12-12T10:46:21.075Z,6.40
2018-12-12T10:48:49.379Z,6.40
2018-12-12T10:51:17.669Z,6.00
2018-12-12T10:53:45.984Z,6.20
2018-12-12T10:56:14.354Z,6.33
2018-12-12T10:58:42.701Z,6.17
2018-12-12T11:01:16.740Z,6.70
2018-12-12T11:03:45.064Z,6.87
2018-12-12T11:06:13.380Z,6.23
2018-12-12T11:08:41.778Z,6.60
2018-12-12T11:11:10.198Z,6.20
2018-12-12T11:13:38.595Z,7.10
2018-12-12T11:16:07.086Z,6.10
2018-12-12T11:18:35.396Z,6.10
2018-12-12T11:21:03.730Z,6.53
2018-12-12T11:23:32.489Z,6.70
2018-12-12T11:26:00.806Z,6.10
2018-12-12T11:28:29.181Z,6.30
2018-12-12T11:30:57.526Z,6.27
2018-12-12T11:33:25.833Z,6.47
2018-12-12T11:35:54.204Z,5.80
2018-12-12T11:38:22.592Z,7.40
2018-12-12T11:40:50.932Z,6.23
2018-12-12T11:43:19.859Z,6.63
2018-12-12T11:45:48.286Z,7.10
2018-12-12T11:48:16.607Z,6.97
2018-12-12T11:50:44.920Z,6.97
2018-12-12T11:53:13.327Z,6.20
2018-12-12T11:55:41.649Z,5.93
2018-12-12T11:58:09.965Z,6.97
2018-12-12T12:00:38.299Z,6.10
2018-12-12T12:03:06.601Z,6.80
2018-12-12T12:05:34.928Z,6.90
2018-12-12T12:08:03.686Z,6.40
2018-12-12T12:10:31.992Z,7.90
2018-12-12T12:13:00.313Z,6.63
2018-12-12T12:15:28.636Z,6.87
2018-12-12T12:17:56.982Z,6.17
2018-12-12T12:20:25.288Z,6.80
2018-12-12T12:22:53.613Z,7.00
2018-12-12T12:25:21.952Z,7.00
2018-12-12T12:27:50.254Z,6.70
2018-12-12T12:30:18.949Z,6.67
2018-12-12T12:32:47.270Z,6.50
2018-12-12T12:35:15.612Z,7.07
2018-12-12T12:37:43.918Z,6.33
2018-12-12T12:40:12.295Z,8.70
2018-12-12T12:42:40.625Z,6.87
2018-12-12T12:45:08.999Z,7.27
2018-12-12T12:47:37.382Z,6.67
2018-12-12T12:50:07.079Z,7.27
2018-12-12T12:52:35.734Z,7.70
2018-12-12T12:55:04.484Z,8.50
2018-12-12T12:57:33.715Z,7.63
2018-12-12T13:00:02.094Z,7.57
2018-12-12T13:02:30.393Z,6.33
2018-12-12T13:04:58.685Z,6.97
2018-12-12T13:07:26.997Z,7.10
2018-12-12T13:09:55.342Z,8.00
2018-12-12T13:12:23.652Z,6.17
2018-12-12T13:14:52.182Z,6.87
2018-12-12T13:17:20.480Z,7.40
2018-12-12T13:19:48.794Z,6.70
2018-12-12T13:22:17.102Z,7.70
2018-12-12T13:24:45.443Z,5.70
2018-12-12T13:27:13.757Z,7.63
2018-12-12T13:29:42.098Z,8.10
2018-12-12T13:32:10.422Z,6.80
2018-12-12T13:34:38.739Z,6.43
2018-12-12T13:37:07.169Z,6.70
2018-12-12T13:39:35.497Z,6.33
2018-12-12T13:42:03.865Z,6.97
2018-12-12T13:44:32.204Z,6.60
2018-12-12T13:47:00.574Z,6.63
2018-12-12T13:49:29.194Z,8.20
2018-12-12T13:51:57.572Z,8.60
2018-12-12T13:54:26.192Z,8.10
2018-12-12T13:56:54.529Z,7.10
2018-12-12T13:59:22.914Z,6.07
2018-12-12T14:01:51.194Z,4.00
2018-12-12T14:04:22.662Z,4.07
2018-12-12T14:06:50.023Z,3.93
2018-12-12T14:09:18.308Z,4.10
2018-12-12T14:11:46.618Z,3.23
2018-12-12T14:14:14.971Z,4.47
2018-12-12T14:16:43.293Z,3.00
2018-12-12T14:19:11.620Z,2.97
2018-12-12T14:21:40.120Z,2.00
2018-12-12T14:24:08.406Z,2.27
2018-12-12T14:26:36.857Z,2.77
2018-12-12T14:29:05.264Z,2.47
2018-12-12T14:31:33.576Z,2.70
2018-12-12T14:34:02.029Z,3.10
2018-12-12T14:36:30.406Z,2.80
2018-12-12T14:38:58.830Z,2.97
2018-12-12T14:41:27.109Z,3.03
2018-12-12T14:43:55.925Z,3.20
2018-12-12T14:46:24.589Z,3.50
2018-12-12T14:48:53.547Z,2.63
2018-12-12T14:51:22.387Z,2.93
2018-12-12T14:53:50.713Z,3.23
2018-12-12T14:56:19.058Z,2.77
2018-12-12T14:58:47.447Z,3.43
2018-12-12T15:01:15.753Z,3.60
2018-12-12T15:03:44.036Z,3.93
2018-12-12T15:06:12.642Z,3.70
2018-12-12T15:08:40.989Z,3.53
2018-12-12T15:11:09.299Z,4.30
2018-12-12T15:13:37.637Z,18.00
2018-12-12T15:16:05.923Z,7.05
2018-12-12T15:18:34.272Z,5.10
2018-12-12T15:21:02.600Z,4.70
2018-12-12T15:23:30.976Z,4.53
2018-12-12T15:25:59.298Z,4.23
2018-12-12T15:28:27.964Z,5.57
2018-12-12T15:30:56.314Z,4.27
2018-12-12T15:33:24.644Z,4.30
2018-12-12T15:35:53.037Z,5.20
2018-12-12T15:38:21.340Z,5.15
2018-12-12T15:40:49.660Z,5.07
2018-12-12T15:43:18.068Z,4.70
2018-12-12T15:45:46.432Z,4.97
2018-12-12T15:48:14.768Z,5.20
2018-12-12T15:50:43.354Z,4.20
2018-12-12T15:53:11.746Z,5.15
2018-12-12T15:55:40.153Z,5.60
2018-12-12T15:58:08.552Z,5.30
2018-12-12T16:00:36.917Z,5.30
2018-12-12T16:03:05.326Z,5.10
2018-12-12T16:05:33.703Z,4.90
2018-12-12T16:08:02.062Z,5.03
2018-12-12T16:10:30.438Z,4.65
2018-12-12T16:12:58.887Z,4.90
2018-12-12T16:15:27.295Z,5.23
2018-12-12T16:17:55.682Z,4.37
2018-12-12T16:20:30.412Z,4.73
2018-12-12T16:23:05.338Z,4.67
2018-12-12T16:25:40.102Z,7.72
2018-12-12T16:28:15.283Z,5.20
2018-12-12T16:30:44.203Z,4.55
2018-12-12T16:33:12.564Z,4.80
2018-12-12T16:35:40.893Z,5.10
2018-12-12T16:38:09.296Z,4.83
2018-12-12T16:40:37.680Z,4.75
2018-12-12T16:43:06.026Z,4.87
2018-12-12T16:45:34.395Z,5.37
2018-12-12T16:48:02.711Z,4.27
2018-12-12T16:50:31.150Z,4.70
2018-12-12T16:52:59.620Z,4.03
2018-12-12T16:55:27.978Z,4.40
2018-12-12T16:57:56.371Z,4.60
2018-12-12T17:00:24.788Z,4.30
2018-12-12T17:02:53.124Z,4.12
2018-12-12T17:05:26.050Z,5.33
2018-12-12T17:07:54.419Z,4.90
2018-12-12T17:10:22.765Z,8.67
2018-12-12T17:12:51.108Z,4.33
2018-12-12T17:15:19.618Z,4.90
2018-12-12T17:17:48.031Z,5.10
2018-12-12T17:20:16.347Z,4.97
2018-12-12T17:22:44.691Z,5.55
2018-12-12T17:25:13.030Z,5.65
2018-12-12T17:27:41.416Z,5.65
2018-12-12T17:30:10.308Z,5.20
2018-12-12T17:32:38.740Z,4.70
2018-12-12T17:35:08.981Z,4.80
2018-12-12T17:37:37.756Z,12.25
2018-12-12T17:40:06.152Z,4.35
2018-12-12T17:42:34.483Z,4.12
2018-12-12T17:45:02.834Z,4.90
2018-12-12T17:47:31.166Z,4.35
2018-12-12T17:49:59.497Z,4.50
2018-12-12T17:52:27.850Z,4.92
2018-12-12T17:54:56.172Z,4.78
2018-12-12T17:57:24.515Z,6.75
2018-12-12T17:59:53.331Z,5.90
2018-12-12T18:02:21.706Z,4.60
2018-12-12T18:04:50.069Z,4.10
2018-12-12T18:07:18.443Z,5.00
2018-12-12T18:09:46.815Z,5.30
2018-12-12T18:12:15.194Z,4.78
2018-12-12T18:14:43.587Z,5.12
2018-12-12T18:17:12.074Z,4.10
2018-12-12T18:19:40.442Z,4.42
2018-12-12T18:22:09.054Z,4.45
2018-12-12T18:24:37.441Z,5.15
2018-12-12T18:27:05.913Z,4.53
2018-12-12T18:29:34.364Z,5.37
2018-12-12T18:32:02.745Z,5.62
2018-12-12T18:34:31.141Z,5.37
2018-12-12T18:36:59.592Z,6.65
2018-12-12T18:39:27.985Z,5.20
2018-12-12T18:42:04.261Z,9.68
2018-12-12T18:44:47.630Z,6.60
2018-12-12T18:47:16.024Z,10.05
2018-12-12T18:50:01.185Z,9.60
2018-12-12T18:52:29.793Z,8.90
2018-12-12T18:55:04.357Z,6.65
2018-12-12T18:57:34.191Z,6.22
2018-12-12T19:00:02.615Z,6.55
2018-12-12T19:02:30.991Z,8.10
2018-12-12T19:04:59.440Z,6.50
2018-12-12T19:07:58.000Z,5.78
2018-12-12T19:10:54.598Z,5.72
2018-12-12T19:13:22.972Z,6.08
2018-12-12T19:15:51.379Z,5.50
2018-12-12T19:18:20.089Z,6.50
2018-12-12T19:20:48.483Z,6.45
2018-12-12T19:23:46.685Z,5.67
2018-12-12T19:26:43.241Z,6.92
2018-12-12T19:35:18.126Z,6.08
2018-12-12T19:37:52.527Z,6.80
2018-12-12T19:40:27.554Z,6.25
2018-12-12T19:43:02.417Z,6.30
2018-12-12T19:45:34.284Z,6.00
2018-12-12T19:48:02.711Z,6.00
2018-12-12T19:50:31.088Z,6.42
2018-12-12T19:53:00.874Z,6.35
2018-12-12T19:55:35.785Z,6.55
2018-12-12T19:58:04.170Z,6.08
2018-12-12T20:00:33.502Z,7.05
2018-12-12T20:03:08.469Z,7.10
2018-12-12T20:08:49.291Z,6.72
2018-12-12T20:11:17.630Z,6.00
2018-12-12T20:13:47.247Z,7.22
2018-12-12T20:16:18.826Z,7.25
2018-12-12T20:18:47.233Z,6.50
2018-12-12T20:21:30.515Z,7.22
2018-12-12T20:23:58.829Z,7.45
2018-12-12T20:26:50.800Z,7.33
2018-12-12T20:32:18.657Z,7.92
2018-12-12T20:34:53.080Z,8.43
2018-12-12T20:37:27.987Z,7.70
2018-12-12T20:40:03.206Z,8.65
2018-12-12T20:42:38.078Z,7.97
2018-12-12T20:45:12.670Z,6.47
2018-12-12T20:47:47.382Z,6.65
2018-12-12T20:53:01.868Z,6.60
2018-12-12T20:55:36.736Z,6.47
2018-12-12T20:58:12.052Z,5.90
2018-12-12T21:00:48.186Z,5.95
2018-12-12T21:03:27.041Z,5.75
2018-12-12T21:05:55.462Z,5.83
2018-12-12T21:08:23.865Z,5.90
2018-12-12T21:11:05.152Z,7.50
2018-12-12T21:16:52.309Z,5.83
2018-12-12T21:19:20.645Z,5.95
2018-12-12T21:21:55.649Z,5.85
2018-12-12T21:27:29.498Z,6.10
2018-12-12T21:33:04.975Z,6.65
2018-12-12T21:38:55.957Z,6.30
2018-12-12T21:44:28.528Z,6.28
2018-12-12T21:47:02.808Z,6.92
2018-12-12T21:49:31.227Z,7.37
2018-12-12T21:52:25.569Z,7.22
2018-12-12T22:00:11.091Z,7.33
2018-12-12T22:02:39.498Z,7.60
2018-12-12T22:05:08.046Z,8.95
2018-12-12T22:07:36.739Z,6.83
2018-12-12T22:10:05.753Z,5.90
2018-12-12T22:12:34.035Z,6.30
2018-12-12T22:15:02.423Z,6.15
2018-12-12T22:17:30.728Z,6.00
2018-12-12T22:19:59.105Z,6.30
2018-12-12T22:22:27.588Z,7.00
2018-12-12T22:24:55.952Z,6.83
2018-12-12T22:27:24.272Z,6.45
2018-12-12T22:29:52.860Z,5.83
2018-12-12T22:32:21.287Z,5.92
2018-12-12T22:34:49.655Z,6.40
2018-12-12T22:37:18.025Z,5.47
2018-12-12T22:39:46.490Z,6.42
2018-12-12T22:42:14.782Z,5.90
2018-12-12T22:44:43.085Z,5.65
2018-12-12T22:47:11.376Z,5.22
2018-12-12T22:49:39.696Z,6.15
2018-12-12T22:52:08.210Z,6.30
2018-12-12T22:54:36.506Z,4.58
2018-12-12T22:57:04.846Z,5.33
2018-12-12T22:59:33.170Z,6.03
2018-12-12T23:02:01.473Z,5.33
2018-12-12T23:04:29.796Z,5.20
2018-12-12T23:06:58.135Z,5.62
2018-12-12T23:09:26.500Z,5.35
2018-12-12T23:11:54.817Z,5.62
2018-12-12T23:14:23.362Z,4.62
2018-12-12T23:16:51.674Z,4.75
2018-12-12T23:19:19.978Z,5.15
2018-12-12T23:21:48.350Z,4.90
2018-12-12T23:24:16.681Z,5.37
2018-12-12T23:26:45.016Z,6.20
2018-12-12T23:29:13.349Z,5.03
2018-12-12T23:31:41.684Z,4.87
2018-12-12T23:34:09.983Z,5.10
2018-12-12T23:36:38.500Z,4.87
2018-12-12T23:39:07.180Z,5.40
2018-12-12T23:41:35.566Z,4.67
2018-12-12T23:44:03.949Z,4.80
2018-12-12T23:46:32.274Z,4.72
2018-12-12T23:49:00.569Z,5.12
2018-12-12T23:51:29.159Z,5.12
2018-12-12T23:53:57.492Z,5.37
2018-12-12T23:56:26.118Z,4.67
2018-12-12T23:58:54.498Z,4.85
